.
WxDataArchive / Data Records for 2011-07-26
2011-07-25 July 2011 2011-07-27

Data Records for Tuesday, 26 July 2011

Time	Temp	Chill	HIndex	Humid	Dewpt	 Wind 	HiWind	WindDir	Rain 	Barom 
-----	----	-----	------	-----	-----	------	------	-------	-----	----- 
00:00	74.4	74.4	74.4	79	67.4	0	0	---	0.00	29.829 
00:05	74.2	74.2	74.2	80	67.6	0	0	---	0.00	29.829 
00:10	73.9	73.9	73.9	80	67.3	0	0	---	0.00	29.829 
00:15	73.7	73.7	73.7	81	67.5	0	0	---	0.00	29.829 
00:20	73.3	73.3	73.3	81	67.1	0	0	---	0.00	29.829 
00:25	73.2	73.2	73.2	81	67.0	0	0	---	0.00	29.829 
00:30	73.0	73.0	73.0	82	67.2	0	0	---	0.00	29.830 
00:35	72.7	72.7	72.7	82	66.9	0	0	---	0.00	29.830 
00:40	72.3	72.3	72.3	82	66.5	0	0	---	0.00	29.830 
00:45	72.1	72.1	72.1	83	66.6	0	0	---	0.00	29.832 
00:50	72.0	72.0	72.0	84	66.9	0	0	---	0.00	29.832 
00:55	71.8	71.8	71.8	84	66.7	0	0	---	0.00	29.832 
01:00	71.6	71.6	71.6	84	66.5	0	0	---	0.00	29.831 
01:05	71.5	71.5	71.5	85	66.7	0	0	---	0.00	29.831 
01:10	71.3	71.3	71.3	85	66.5	0	0	---	0.00	29.831 
01:15	71.1	71.1	71.1	85	66.4	0	0	---	0.00	29.832 
01:20	70.9	70.9	70.9	85	66.2	0	0	---	0.00	29.832 
01:25	70.8	70.8	70.8	85	66.1	0	0	---	0.00	29.832 
01:30	70.4	70.4	70.4	85	65.7	0	0	---	0.00	29.832 
01:35	70.4	70.4	70.4	86	66.0	0	0	---	0.00	29.832 
01:40	70.1	70.1	70.1	87	66.0	0	0	---	0.00	29.832 
01:45	69.9	69.9	69.9	88	66.2	0	0	---	0.00	29.830 
01:50	69.8	69.8	69.8	88	66.1	0	0	---	0.00	29.830 
01:55	69.6	69.6	69.6	88	65.9	0	0	---	0.00	29.830 
02:00	69.4	69.4	69.4	88	65.7	0	0	---	0.00	29.830 
02:05	69.3	69.3	69.3	88	65.6	0	0	---	0.00	29.830 
02:10	69.1	69.1	69.1	89	65.7	0	0	---	0.00	29.830 
02:15	68.9	68.9	68.9	89	65.5	0	0	---	0.00	29.832 
02:20	68.8	68.8	68.8	90	65.7	0	0	---	0.00	29.832 
02:25	68.6	68.6	68.6	90	65.5	0	0	---	0.00	29.832 
02:30	68.4	68.4	68.4	90	65.3	0	0	---	0.00	29.829 
02:35	68.3	68.3	68.3	90	65.2	0	0	---	0.00	29.829 
02:40	68.1	68.1	68.1	90	65.0	0	0	---	0.00	29.829 
02:45	67.9	67.9	67.9	91	65.2	0	0	---	0.00	29.822 
02:50	67.8	67.8	67.8	91	65.1	0	0	---	0.00	29.822 
02:55	67.6	67.6	67.6	91	64.9	0	0	---	0.00	29.822 
03:00	67.4	67.4	67.4	91	64.7	0	0	---	0.00	29.819 
03:05	67.3	67.3	67.3	92	64.9	0	0	---	0.00	29.819 
03:10	67.3	67.3	67.3	92	64.9	0	0	---	0.00	29.819 
03:15	67.3	67.3	67.3	92	64.9	0	0	---	0.00	29.818 
03:20	67.1	67.1	67.1	92	64.7	0	0	---	0.00	29.818 
03:25	66.9	66.9	66.9	92	64.5	0	0	---	0.00	29.818 
03:30	66.9	66.9	66.9	92	64.5	0	0	---	0.00	29.818 
03:35	66.8	66.8	66.8	92	64.4	0	0	---	0.00	29.818 
03:40	66.6	66.6	66.6	92	64.2	0	0	---	0.00	29.818 
03:45	66.6	66.6	66.6	92	64.2	0	0	---	0.00	29.821 
03:50	66.4	66.4	66.4	92	64.0	0	0	---	0.00	29.821 
03:55	66.4	66.4	66.4	92	64.0	0	0	---	0.00	29.821 
04:00	66.3	66.3	66.3	93	64.2	0	0	---	0.00	29.821 
04:05	66.4	66.4	66.4	93	64.3	0	0	---	0.00	29.821 
04:10	66.4	66.4	66.4	93	64.3	0	0	---	0.00	29.821 
04:15	66.4	66.4	66.4	93	64.3	0	0	---	0.00	29.818 
04:20	66.4	66.4	66.4	93	64.3	0	0	---	0.00	29.818 
04:25	66.3	66.3	66.3	93	64.2	0	0	---	0.00	29.818 
04:30	66.3	66.3	66.3	93	64.2	0	0	---	0.00	29.817 
04:35	66.3	66.3	66.3	93	64.2	0	0	---	0.00	29.817 
04:40	66.3	66.3	66.3	93	64.2	0	0	---	0.00	29.817 
04:45	66.1	66.1	66.1	93	64.0	0	0	---	0.00	29.818 
04:50	66.0	66.0	66.0	93	63.9	0	0	---	0.00	29.818 
04:55	66.0	66.0	66.0	93	63.9	0	0	---	0.00	29.818 
05:00	65.8	65.8	65.8	94	64.0	0	0	---	0.00	29.820 
05:05	65.8	65.8	65.8	94	64.0	0	0	---	0.00	29.820 
05:10	66.0	66.0	66.0	94	64.2	0	0	---	0.00	29.820 
05:15	66.0	66.0	66.0	94	64.2	0	0	---	0.00	29.822 
05:20	66.1	66.1	66.1	94	64.3	0	0	---	0.00	29.822 
05:25	66.3	66.3	66.3	94	64.5	0	0	---	0.00	29.822 
05:30	66.4	66.4	66.4	94	64.6	0	0	---	0.00	29.819 
05:35	66.4	66.4	66.4	94	64.6	0	1	292	0.00	29.819 
05:40	66.6	66.6	66.6	94	64.8	0	1	---	0.00	29.819 
05:45	66.6	66.6	66.6	94	64.8	0	0	---	0.00	29.815 
05:50	66.8	66.8	66.8	93	64.7	0	0	---	0.00	29.815 
05:55	66.6	66.6	66.6	93	64.5	0	0	---	0.00	29.815 
06:00	66.6	66.6	66.6	93	64.5	0	0	---	0.00	29.816 
06:05	66.6	66.6	66.6	92	64.2	0	0	---	0.00	29.816 
06:10	66.6	66.6	66.6	92	64.2	0	0	---	0.00	29.816 
06:15	66.4	66.4	66.4	92	64.0	0	0	---	0.00	29.814 
06:20	66.4	66.4	66.4	92	64.0	0	0	---	0.00	29.814 
06:25	66.4	66.4	66.4	92	64.0	0	0	---	0.00	29.814 
06:30	66.4	66.4	66.4	92	64.0	0	0	---	0.00	29.811 
06:35	66.8	66.8	66.8	91	64.1	0	1	292	0.00	29.811 
06:40	67.1	67.1	67.1	91	64.4	0	1	292	0.00	29.811 
06:45	67.3	67.3	67.3	90	64.3	0	1	292	0.00	29.811 
06:50	67.4	67.4	67.4	89	64.0	0	1	292	0.00	29.811 
06:55	67.8	67.8	67.8	88	64.1	0	2	292	0.00	29.811 
07:00	67.9	67.9	67.9	87	63.9	0	1	292	0.00	29.808 
07:05	68.1	68.1	68.1	87	64.1	0	2	292	0.00	29.808 
07:10	68.3	68.3	68.3	86	63.9	0	2	292	0.00	29.808 
07:15	68.6	68.6	68.6	86	64.2	0	2	292	0.00	29.816 
07:20	68.8	68.8	68.8	85	64.1	1	2	292	0.00	29.816 
07:25	69.1	69.1	69.1	85	64.4	1	2	292	0.00	29.816 
07:30	69.4	69.4	69.4	85	64.7	1	2	292	0.00	29.817 
07:35	69.8	69.8	69.8	84	64.7	1	3	292	0.00	29.817 
07:40	70.1	70.1	70.1	84	65.0	0	2	292	0.00	29.817 
07:45	70.4	70.4	70.4	83	65.0	1	2	292	0.00	29.814 
07:50	70.8	70.8	70.8	83	65.4	1	3	292	0.00	29.814 
07:55	71.1	71.1	71.1	82	65.3	1	3	292	0.00	29.814 
08:00	71.6	71.6	71.6	82	65.8	1	3	292	0.00	29.815 
08:05	72.0	72.0	72.0	81	65.8	1	3	292	0.00	29.815 
08:10	72.3	72.3	72.3	81	66.1	0	4	292	0.00	29.815 
08:15	72.7	72.7	72.7	80	66.2	1	3	292	0.00	29.817 
08:20	73.2	73.2	73.2	78	65.9	1	2	292	0.00	29.817 
08:25	73.5	73.5	73.5	77	65.8	1	3	292	0.00	29.817 
08:30	73.9	73.9	73.9	76	65.8	2	3	292	0.00	29.825 
08:35	74.2	74.2	74.2	75	65.8	1	4	292	0.00	29.825 
08:40	74.6	74.6	74.6	74	65.7	2	4	315	0.00	29.825 
08:45	74.9	74.9	74.9	73	65.6	1	3	315	0.00	29.827 
08:50	75.3	75.3	76.7	73	66.0	2	5	292	0.00	29.827 
08:55	75.4	75.4	76.9	72	65.7	2	5	292	0.00	29.827 
09:00	75.6	75.6	77.1	72	65.9	2	4	315	0.00	29.831 
09:05	75.8	75.8	77.4	71	65.7	2	5	292	0.00	29.831 
09:10	76.1	76.1	77.7	71	66.0	2	4	292	0.00	29.831 
09:15	76.3	76.3	78.0	70	65.8	2	5	315	0.00	29.833 
09:20	76.5	76.5	78.2	70	66.0	2	5	292	0.00	29.833 
09:25	76.7	76.7	78.4	69	65.7	2	4	270	0.00	29.833 
09:30	76.8	76.8	78.5	70	66.3	1	5	292	0.00	29.834 
09:35	77.2	77.2	79.0	69	66.2	1	5	292	0.00	29.834 
09:40	77.4	77.4	79.2	68	66.0	2	6	270	0.00	29.834 
09:45	77.7	77.7	79.6	68	66.3	1	4	270	0.00	29.833 
09:50	77.9	77.9	79.8	67	66.0	1	3	270	0.00	29.833 
09:55	78.3	78.3	80.3	67	66.4	1	2	270	0.00	29.833 
10:00	78.6	78.6	80.6	65	65.8	1	4	270	0.00	29.833 
10:05	79.0	79.0	81.0	65	66.2	1	3	270	0.00	29.833 
10:10	79.2	79.2	81.1	63	65.5	2	5	270	0.00	29.833 
10:15	79.2	79.2	81.1	62	65.0	2	4	270	0.00	29.834 
10:20	79.6	79.6	81.5	62	65.4	1	2	338	0.00	29.834 
10:25	79.8	79.8	81.8	62	65.6	1	3	315	0.00	29.834 
10:30	80.1	80.1	82.2	62	65.9	1	3	292	0.00	29.838 
10:35	80.5	80.5	82.5	61	65.8	1	6	270	0.00	29.838 
10:40	80.7	80.7	82.8	61	66.0	1	3	270	0.00	29.838 
10:45	81.1	81.1	83.3	61	66.4	1	3	270	0.00	29.837 
10:50	81.1	81.1	82.9	58	64.9	2	4	270	0.00	29.837 
10:55	81.1	81.1	82.8	57	64.4	2	7	270	0.00	29.837 
11:00	81.4	81.4	83.3	58	65.2	0	2	270	0.00	29.838 
11:05	81.8	81.8	83.2	54	63.5	1	3	270	0.00	29.838 
11:10	82.0	82.0	83.2	53	63.2	1	3	292	0.00	29.838 
11:15	82.2	82.2	83.6	54	63.9	1	3	292	0.00	29.834 
11:20	83.0	83.0	84.7	54	64.6	1	3	292	0.00	29.834 
11:25	83.2	83.2	84.5	52	63.7	0	3	292	0.00	29.834 
11:30	83.6	83.6	85.0	52	64.1	0	2	292	0.00	29.830 
11:35	84.0	84.0	85.3	51	63.9	1	3	292	0.00	29.830 
11:40	84.1	84.1	85.7	52	64.5	1	4	292	0.00	29.830 
11:45	84.3	84.3	85.5	50	63.6	2	4	292	0.00	29.833 
11:50	84.3	84.3	85.5	50	63.6	2	5	270	0.00	29.833 
11:55	84.1	84.1	85.0	49	62.8	1	3	292	0.00	29.833 
12:00	84.1	84.1	85.3	50	63.4	1	3	292	0.00	29.834 
12:05	84.3	84.3	84.7	46	61.2	3	6	270	0.00	29.834 
12:10	84.5	84.5	85.6	49	63.2	2	5	270	0.00	29.834 
12:15	84.5	84.5	84.9	46	61.4	2	5	270	0.00	29.840 
12:20	84.7	84.7	85.4	47	62.2	2	5	270	0.00	29.840 
12:25	85.1	85.1	85.0	43	60.1	2	5	270	0.00	29.840 
12:30	85.1	85.1	85.7	46	62.0	2	5	292	0.00	29.842 
12:35	85.1	85.1	85.9	47	62.6	1	3	0	0.00	29.842 
12:40	85.5	85.5	86.2	46	62.3	2	5	270	0.00	29.842 
12:45	85.7	85.7	86.4	46	62.5	1	3	315	0.00	29.841 
12:50	85.9	85.9	86.9	47	63.3	1	3	315	0.00	29.841 
12:55	85.7	85.7	86.4	46	62.5	1	4	315	0.00	29.841 
13:00	85.7	85.7	86.0	44	61.2	1	3	315	0.00	29.845 
13:05	85.5	85.5	85.7	44	61.1	1	3	315	0.00	29.845 
13:10	85.7	85.7	86.2	45	61.9	1	4	292	0.00	29.845 
13:15	85.9	85.9	86.0	43	60.8	3	7	315	0.00	29.841 
13:20	86.1	86.1	86.5	44	61.6	2	5	270	0.00	29.841 
13:25	86.5	86.5	87.2	45	62.6	1	4	0	0.00	29.841 
13:30	86.5	86.5	86.5	42	60.6	2	7	270	0.00	29.838 
13:35	87.0	87.0	87.9	45	63.1	1	3	292	0.00	29.838 
13:40	87.2	87.2	87.4	42	61.3	2	4	270	0.00	29.838 
13:45	87.0	87.0	86.9	41	60.4	2	5	270	0.00	29.836 
13:50	87.0	87.0	87.6	44	62.4	0	2	270	0.00	29.836 
13:55	87.2	87.2	87.4	42	61.3	1	3	270	0.00	29.836 
14:00	87.0	87.0	87.1	42	61.1	2	6	292	0.00	29.834 
14:05	87.2	87.2	87.1	41	60.6	1	3	292	0.00	29.834 
14:10	86.5	86.5	86.7	43	61.3	2	4	292	0.00	29.834 
14:15	85.9	85.9	86.4	45	62.1	1	4	292	0.00	29.835 
14:20	86.1	86.1	86.5	44	61.6	1	4	292	0.00	29.835 
14:25	86.3	86.3	86.7	44	61.8	1	5	315	0.00	29.835 
14:30	86.5	86.5	87.2	45	62.6	1	4	292	0.00	29.835 
14:35	86.7	86.7	87.0	43	61.5	1	4	292	0.00	29.835 
14:40	86.3	86.3	87.0	45	62.4	1	3	270	0.00	29.835 
14:45	86.5	86.5	87.0	44	62.0	1	3	270	0.00	29.835 
14:50	86.5	86.5	86.7	43	61.3	1	5	292	0.00	29.835 
14:55	86.7	86.7	87.2	44	62.1	1	4	270	0.00	29.835 
15:00	87.4	87.4	87.6	42	61.5	1	4	338	0.00	29.832 
15:05	88.0	88.0	88.2	41	61.3	2	7	292	0.00	29.832 
15:10	87.4	87.4	87.4	41	60.8	1	3	270	0.00	29.832 
15:15	87.2	87.2	87.4	42	61.3	0	3	270	0.00	29.834 
15:20	87.2	87.2	87.4	42	61.3	1	4	292	0.00	29.834 
15:25	87.0	87.0	87.4	43	61.8	1	4	315	0.00	29.834 
15:30	87.4	87.4	87.6	42	61.5	0	2	315	0.00	29.834 
15:35	87.4	87.4	87.4	41	60.8	1	3	0	0.00	29.834 
15:40	87.6	87.6	87.6	41	60.9	0	2	0	0.00	29.834 
15:45	87.4	87.4	87.6	42	61.5	2	6	270	0.00	29.830 
15:50	87.2	87.2	87.1	41	60.6	1	3	292	0.00	29.830 
15:55	87.6	87.6	87.1	39	59.5	1	4	315	0.00	29.830 
16:00	88.0	88.0	87.6	39	59.9	2	5	292	0.00	29.825 
16:05	88.4	88.4	87.6	37	58.8	1	5	315	0.00	29.825 
16:10	88.4	88.4	87.9	38	59.5	1	4	292	0.00	29.825 
16:15	88.4	88.4	87.9	38	59.5	1	3	315	0.00	29.829 
16:20	88.0	88.0	87.6	39	59.9	1	3	315	0.00	29.829 
16:25	88.2	88.2	87.4	37	58.6	2	4	292	0.00	29.829 
16:30	88.2	88.2	87.2	36	57.8	3	6	315	0.00	29.827 
16:35	88.2	88.2	87.4	37	58.6	2	5	315	0.00	29.827 
16:40	88.4	88.4	87.4	36	58.0	2	5	292	0.00	29.827 
16:45	88.6	88.6	87.6	36	58.2	2	5	270	0.00	29.820 
16:50	88.8	88.8	88.1	37	59.1	2	6	292	0.00	29.820 
16:55	88.8	88.8	88.7	39	60.6	1	5	292	0.00	29.820 
17:00	88.6	88.6	87.9	37	59.0	1	3	292	0.00	29.819 
17:05	88.6	88.6	88.2	38	59.7	2	9	292	0.00	29.819 
17:10	88.6	88.6	87.4	35	57.4	2	5	270	0.00	29.819 
17:15	88.6	88.6	87.6	36	58.2	2	5	270	0.00	29.815 
17:20	88.6	88.6	88.4	39	60.4	1	4	270	0.00	29.815 
17:25	88.2	88.2	86.9	35	57.0	3	7	270	0.00	29.815 
17:30	88.2	88.2	87.2	36	57.8	3	5	292	0.00	29.817 
17:35	88.4	88.4	87.2	35	57.2	1	3	292	0.00	29.817 
17:40	88.2	88.2	87.4	37	58.6	1	3	292	0.00	29.817 
17:45	88.0	88.0	86.9	36	57.7	2	5	338	0.00	29.814 
17:50	87.6	87.6	86.2	35	56.5	1	3	338	0.00	29.814 
17:55	87.4	87.4	86.2	36	57.1	1	3	292	0.00	29.814 
18:00	87.4	87.4	86.2	36	57.1	1	4	292	0.00	29.814 
18:05	87.4	87.4	86.4	37	57.9	2	4	315	0.00	29.814 
18:10	87.4	87.4	86.0	35	56.3	1	4	292	0.00	29.814 
18:15	87.2	87.2	86.2	37	57.7	2	5	292	0.00	29.814 
18:20	87.0	87.0	85.8	36	56.8	1	4	292	0.00	29.814 
18:25	87.0	87.0	85.8	36	56.8	1	4	292	0.00	29.814 
18:30	87.0	87.0	85.8	36	56.8	1	5	292	0.00	29.809 
18:35	87.0	87.0	86.0	37	57.5	1	3	292	0.00	29.809 
18:40	87.0	87.0	85.8	36	56.8	1	4	315	0.00	29.809 
18:45	86.7	86.7	85.6	37	57.3	1	4	292	0.00	29.812 
18:50	86.7	86.7	85.8	38	58.0	1	3	315	0.00	29.812 
18:55	86.7	86.7	85.8	38	58.0	2	4	292	0.00	29.812 
19:00	86.5	86.5	85.8	39	58.6	1	6	270	0.00	29.816 
19:05	86.3	86.3	85.6	39	58.4	1	5	270	0.00	29.816 
19:10	86.1	86.1	85.8	41	59.6	0	2	270	0.00	29.816 
19:15	85.9	85.9	85.1	39	58.0	2	6	270	0.00	29.815 
19:20	85.9	85.9	85.1	39	58.0	1	3	270	0.00	29.815 
19:25	85.9	85.9	85.3	40	58.7	0	2	270	0.00	29.815 
19:30	85.5	85.5	85.1	41	59.1	1	3	270	0.00	29.816 
19:35	85.1	85.1	84.6	41	58.7	1	3	292	0.00	29.816 
19:40	84.7	84.7	84.0	40	57.7	1	4	292	0.00	29.816 
19:45	84.7	84.7	84.2	41	58.4	0	2	315	0.00	29.826 
19:50	84.5	84.5	84.0	41	58.2	1	2	315	0.00	29.826 
19:55	84.3	84.3	83.9	42	58.7	0	2	315	0.00	29.826 
20:00	84.1	84.1	83.9	43	59.2	1	3	315	0.00	29.831 
20:05	83.8	83.8	83.6	43	58.9	0	2	315	0.00	29.831 
20:10	83.4	83.4	83.5	45	59.8	0	2	292	0.00	29.831 
20:15	83.2	83.2	83.1	44	59.0	1	3	315	0.00	29.831 
20:20	82.8	82.8	82.9	45	59.3	0	3	315	0.00	29.831 
20:25	82.6	82.6	82.8	46	59.7	0	1	315	0.00	29.831 
20:30	82.2	82.2	82.7	48	60.5	0	1	315	0.00	29.830 
20:35	81.8	81.8	82.4	49	60.7	0	2	315	0.00	29.830 
20:40	81.4	81.4	82.0	49	60.4	0	1	315	0.00	29.830 
20:45	81.1	81.1	81.6	48	59.5	0	2	315	0.00	29.835 
20:50	80.7	80.7	81.3	49	59.7	0	1	315	0.00	29.835 
20:55	80.3	80.3	81.1	50	59.9	0	1	315	0.00	29.835 
21:00	79.9	79.9	80.7	50	59.6	0	0	---	0.00	29.841 
21:05	79.6	79.6	80.5	51	59.9	0	1	315	0.00	29.841 
21:10	79.2	79.2	80.3	52	60.0	0	0	---	0.00	29.841 
21:15	78.8	78.8	80.0	53	60.2	0	0	---	0.00	29.840 
21:20	78.6	78.6	79.8	53	60.0	0	1	315	0.00	29.840 
21:25	78.3	78.3	79.6	53	59.7	0	0	---	0.00	29.840 
21:30	77.9	77.9	79.3	54	59.9	0	0	---	0.00	29.848 
21:35	77.6	77.6	79.1	54	59.6	0	0	---	0.00	29.848 
21:40	77.2	77.2	78.9	55	59.8	0	0	---	0.00	29.848 
21:45	76.8	76.8	78.6	56	59.9	0	0	---	0.00	29.851 
21:50	76.7	76.7	78.5	56	59.8	0	0	---	0.00	29.851 
21:55	76.3	76.3	78.3	57	59.9	0	1	315	0.00	29.851 
22:00	76.1	76.1	78.1	57	59.7	0	1	315	0.00	29.859 
22:05	76.0	76.0	78.0	58	60.1	0	0	---	0.00	29.859 
22:10	75.8	75.8	77.9	58	59.9	0	0	---	0.00	29.859 
22:15	75.4	75.4	77.6	59	60.1	0	0	---	0.00	29.865 
22:20	75.3	75.3	77.6	59	60.0	0	0	---	0.00	29.865 
22:25	74.9	74.9	74.9	60	60.1	0	0	---	0.00	29.865 
22:30	74.6	74.6	74.6	61	60.2	0	0	---	0.00	29.869 
22:35	74.4	74.4	74.4	62	60.5	0	0	---	0.00	29.869 
22:40	74.0	74.0	74.0	62	60.1	0	0	---	0.00	29.869 
22:45	73.9	73.9	73.9	62	60.0	0	0	---	0.00	29.877 
22:50	73.7	73.7	73.7	62	59.9	0	0	---	0.00	29.877 
22:55	73.5	73.5	73.5	62	59.7	0	0	---	0.00	29.877 
23:00	73.3	73.3	73.3	62	59.5	0	0	---	0.00	29.875 
23:05	73.2	73.2	73.2	61	58.9	0	0	---	0.00	29.875 
23:10	73.0	73.0	73.0	62	59.2	0	1	315	0.00	29.875 
23:15	72.8	72.8	72.8	61	58.6	0	0	---	0.00	29.877 
23:20	72.7	72.7	72.7	60	58.0	0	1	315	0.00	29.877 
23:25	72.7	72.7	72.7	60	58.0	0	0	---	0.00	29.877 
23:30	72.3	72.3	72.3	60	57.6	0	0	---	0.00	29.880 
23:35	72.1	72.1	72.1	60	57.4	0	0	---	0.00	29.880 
23:40	72.0	72.0	72.0	60	57.3	0	0	---	0.00	29.880 
23:45	71.6	71.6	71.6	60	57.0	0	0	---	0.00	29.880 
23:50	71.6	71.6	71.6	60	57.0	0	1	315	0.00	29.880 
23:55	71.3	71.3	71.3	61	57.1	0	0	---	0.00	29.880 

CoCoRaHS
IN-AL-39
A2 Web Hosting
Creative Commons License
GoDaddy
search engine by freefind advanced

loaded 2018-11-19 11:03:18 • last modified 2010-11-18 10:43:29
Privacy PolicyDisclaimer
• wx.awcolley.com is powered by PmWiki v.2002016 •
• all content (unless otherwise noted) © 2018 A W Colley